sensor_id;sensor_type;location;lat;lon;timestamp;temperature;humidity
24207;DHT22;12351;52.284;9.160;2022-07-29T00:02:17;19.10;99.90
24207;DHT22;12351;52.284;9.160;2022-07-29T00:04:51;19.00;99.90
24207;DHT22;12351;52.284;9.160;2022-07-29T00:07:24;19.10;99.90
24207;DHT22;12351;52.284;9.160;2022-07-29T00:09:59;19.10;99.90
24207;DHT22;12351;52.284;9.160;2022-07-29T00:12:33;19.00;99.90
24207;DHT22;12351;52.284;9.160;2022-07-29T00:15:08;19.00;99.90
24207;DHT22;12351;52.284;9.160;2022-07-29T00:17:40;19.20;99.90
24207;DHT22;12351;52.284;9.160;2022-07-29T00:20:18;19.10;99.90
24207;DHT22;12351;52.284;9.160;2022-07-29T00:22:48;19.00;99.90
24207;DHT22;12351;52.284;9.160;2022-07-29T00:25:28;19.00;99.90
24207;DHT22;12351;52.284;9.160;2022-07-29T00:27:59;18.90;99.90
24207;DHT22;12351;52.284;9.160;2022-07-29T00:30:33;19.20;99.90
24207;DHT22;12351;52.284;9.160;2022-07-29T00:33:04;19.00;99.90
24207;DHT22;12351;52.284;9.160;2022-07-29T00:35:37;19.10;99.90
24207;DHT22;12351;52.284;9.160;2022-07-29T00:38:13;19.20;99.90
24207;DHT22;12351;52.284;9.160;2022-07-29T00:40:48;19.00;99.90
24207;DHT22;12351;52.284;9.160;2022-07-29T00:43:22;18.90;99.90
24207;DHT22;12351;52.284;9.160;2022-07-29T00:45:57;18.90;99.90
24207;DHT22;12351;52.284;9.160;2022-07-29T00:48:32;18.90;99.90
24207;DHT22;12351;52.284;9.160;2022-07-29T00:51:05;19.10;99.90
24207;DHT22;12351;52.284;9.160;2022-07-29T00:53:39;18.90;99.90
24207;DHT22;12351;52.284;9.160;2022-07-29T00:56:14;18.80;99.90
24207;DHT22;12351;52.284;9.160;2022-07-29T00:58:50;18.90;99.90
24207;DHT22;12351;52.284;9.160;2022-07-29T01:01:24;18.90;99.90
24207;DHT22;12351;52.284;9.160;2022-07-29T01:04:00;19.00;99.90
24207;DHT22;12351;52.284;9.160;2022-07-29T01:06:34;18.90;99.90
24207;DHT22;12351;52.284;9.160;2022-07-29T01:09:07;19.00;99.90
24207;DHT22;12351;52.284;9.160;2022-07-29T01:11:37;18.90;99.90
24207;DHT22;12351;52.284;9.160;2022-07-29T01:14:12;18.70;99.90
24207;DHT22;12351;52.284;9.160;2022-07-29T01:16:47;18.60;99.90
24207;DHT22;12351;52.284;9.160;2022-07-29T01:30:02;18.80;99.90
24207;DHT22;12351;52.284;9.160;2022-07-29T01:32:37;18.80;99.90
24207;DHT22;12351;52.284;9.160;2022-07-29T01:35:15;18.70;99.90
24207;DHT22;12351;52.284;9.160;2022-07-29T01:37:45;18.70;99.90
24207;DHT22;12351;52.284;9.160;2022-07-29T01:40:20;18.80;99.90
24207;DHT22;12351;52.284;9.160;2022-07-29T01:42:53;18.70;99.90
24207;DHT22;12351;52.284;9.160;2022-07-29T01:45:28;18.60;99.90
24207;DHT22;12351;52.284;9.160;2022-07-29T01:50:44;18.70;99.90
24207;DHT22;12351;52.284;9.160;2022-07-29T01:53:11;18.70;99.90
24207;DHT22;12351;52.284;9.160;2022-07-29T01:55:48;18.80;99.90
24207;DHT22;12351;52.284;9.160;2022-07-29T01:58:23;18.70;99.90
24207;DHT22;12351;52.284;9.160;2022-07-29T02:00:57;18.80;99.90
24207;DHT22;12351;52.284;9.160;2022-07-29T02:03:32;18.90;99.90
24207;DHT22;12351;52.284;9.160;2022-07-29T02:06:08;18.80;99.90
24207;DHT22;12351;52.284;9.160;2022-07-29T02:08:44;18.80;99.90
24207;DHT22;12351;52.284;9.160;2022-07-29T02:11:20;18.90;99.90
24207;DHT22;12351;52.284;9.160;2022-07-29T02:13:55;19.10;99.90
24207;DHT22;12351;52.284;9.160;2022-07-29T02:16:31;18.90;99.90
24207;DHT22;12351;52.284;9.160;2022-07-29T02:19:06;18.80;99.90
24207;DHT22;12351;52.284;9.160;2022-07-29T02:21:39;18.90;99.90
24207;DHT22;12351;52.284;9.160;2022-07-29T02:24:15;19.00;99.90
24207;DHT22;12351;52.284;9.160;2022-07-29T02:26:52;18.90;99.90
24207;DHT22;12351;52.284;9.160;2022-07-29T02:29:27;18.90;99.90
24207;DHT22;12351;52.284;9.160;2022-07-29T02:32:02;18.90;99.90
24207;DHT22;12351;52.284;9.160;2022-07-29T02:34:37;18.90;99.90
24207;DHT22;12351;52.284;9.160;2022-07-29T02:37:11;18.80;99.90
24207;DHT22;12351;52.284;9.160;2022-07-29T02:39:47;19.00;99.90
24207;DHT22;12351;52.284;9.160;2022-07-29T02:42:22;18.90;99.90
24207;DHT22;12351;52.284;9.160;2022-07-29T02:44:57;18.90;99.90
24207;DHT22;12351;52.284;9.160;2022-07-29T02:50:08;18.80;99.90
24207;DHT22;12351;52.284;9.160;2022-07-29T02:52:39;18.80;99.90
24207;DHT22;12351;52.284;9.160;2022-07-29T02:57:49;18.70;99.90
24207;DHT22;12351;52.284;9.160;2022-07-29T03:00:23;18.80;99.90
24207;DHT22;12351;52.284;9.160;2022-07-29T03:02:58;18.90;99.90
24207;DHT22;12351;52.284;9.160;2022-07-29T03:05:33;18.80;99.90
24207;DHT22;12351;52.284;9.160;2022-07-29T03:08:08;18.90;99.90
24207;DHT22;12351;52.284;9.160;2022-07-29T03:10:43;18.80;99.90
24207;DHT22;12351;52.284;9.160;2022-07-29T03:13:17;18.80;99.90
24207;DHT22;12351;52.284;9.160;2022-07-29T03:15:50;19.00;99.90
24207;DHT22;12351;52.284;9.160;2022-07-29T03:18:25;18.90;99.90
24207;DHT22;12351;52.284;9.160;2022-07-29T03:20:59;18.80;99.90
24207;DHT22;12351;52.284;9.160;2022-07-29T03:23:31;18.80;99.90
24207;DHT22;12351;52.284;9.160;2022-07-29T03:26:04;18.80;99.90
24207;DHT22;12351;52.284;9.160;2022-07-29T03:28:40;18.90;99.90
24207;DHT22;12351;52.284;9.160;2022-07-29T03:31:12;19.10;99.90
24207;DHT22;12351;52.284;9.160;2022-07-29T03:33:50;19.10;99.90
24207;DHT22;12351;52.284;9.160;2022-07-29T03:36:22;19.10;99.90
24207;DHT22;12351;52.284;9.160;2022-07-29T03:38:59;19.20;99.90
24207;DHT22;12351;52.284;9.160;2022-07-29T03:41:34;19.20;99.90
24207;DHT22;12351;52.284;9.160;2022-07-29T03:44:08;19.00;99.90
24207;DHT22;12351;52.284;9.160;2022-07-29T03:46:42;19.00;99.90
24207;DHT22;12351;52.284;9.160;2022-07-29T03:49:14;19.00;99.90
24207;DHT22;12351;52.284;9.160;2022-07-29T03:51:50;18.80;99.90
24207;DHT22;12351;52.284;9.160;2022-07-29T03:54:24;18.90;99.90
24207;DHT22;12351;52.284;9.160;2022-07-29T03:56:59;19.00;99.90
24207;DHT22;12351;52.284;9.160;2022-07-29T03:59:33;19.10;99.90
24207;DHT22;12351;52.284;9.160;2022-07-29T04:02:08;19.10;99.90
24207;DHT22;12351;52.284;9.160;2022-07-29T04:04:43;19.20;99.90
24207;DHT22;12351;52.284;9.160;2022-07-29T04:07:16;19.10;99.90
24207;DHT22;12351;52.284;9.160;2022-07-29T04:09:48;19.10;99.90
24207;DHT22;12351;52.284;9.160;2022-07-29T04:12:21;19.30;99.90
24207;DHT22;12351;52.284;9.160;2022-07-29T04:14:53;19.30;99.90
24207;DHT22;12351;52.284;9.160;2022-07-29T04:17:29;19.30;99.90
24207;DHT22;12351;52.284;9.160;2022-07-29T04:20:02;19.10;99.90
24207;DHT22;12351;52.284;9.160;2022-07-29T04:22:35;19.10;99.90
24207;DHT22;12351;52.284;9.160;2022-07-29T04:25:07;19.10;99.90
24207;DHT22;12351;52.284;9.160;2022-07-29T04:27:41;19.30;99.90
24207;DHT22;12351;52.284;9.160;2022-07-29T04:30:15;19.30;99.90
24207;DHT22;12351;52.284;9.160;2022-07-29T04:32:47;19.30;99.90
24207;DHT22;12351;52.284;9.160;2022-07-29T04:35:22;19.10;99.90
24207;DHT22;12351;52.284;9.160;2022-07-29T04:37:54;19.20;99.90
24207;DHT22;12351;52.284;9.160;2022-07-29T04:40:30;19.10;99.90
24207;DHT22;12351;52.284;9.160;2022-07-29T04:43:03;19.20;99.90
24207;DHT22;12351;52.284;9.160;2022-07-29T04:45:38;19.30;99.90
24207;DHT22;12351;52.284;9.160;2022-07-29T04:48:09;19.50;99.90
24207;DHT22;12351;52.284;9.160;2022-07-29T04:50:46;19.50;99.90
24207;DHT22;12351;52.284;9.160;2022-07-29T04:53:19;19.30;99.90
24207;DHT22;12351;52.284;9.160;2022-07-29T04:55:53;19.40;99.90
24207;DHT22;12351;52.284;9.160;2022-07-29T04:58:26;19.30;99.90
24207;DHT22;12351;52.284;9.160;2022-07-29T05:01:02;19.30;99.90
24207;DHT22;12351;52.284;9.160;2022-07-29T05:03:37;19.60;99.90
24207;DHT22;12351;52.284;9.160;2022-07-29T05:06:09;19.60;99.90
24207;DHT22;12351;52.284;9.160;2022-07-29T05:08:45;19.60;99.90
24207;DHT22;12351;52.284;9.160;2022-07-29T05:11:16;19.60;99.90
24207;DHT22;12351;52.284;9.160;2022-07-29T05:13:52;19.50;99.90
24207;DHT22;12351;52.284;9.160;2022-07-29T05:16:25;19.30;99.90
24207;DHT22;12351;52.284;9.160;2022-07-29T05:18:57;19.40;99.90
24207;DHT22;12351;52.284;9.160;2022-07-29T05:21:29;19.60;99.90
24207;DHT22;12351;52.284;9.160;2022-07-29T05:24:01;19.30;99.90
24207;DHT22;12351;52.284;9.160;2022-07-29T05:26:31;19.30;99.90
24207;DHT22;12351;52.284;9.160;2022-07-29T05:29:03;19.40;99.90
24207;DHT22;12351;52.284;9.160;2022-07-29T05:31:35;19.40;99.90
24207;DHT22;12351;52.284;9.160;2022-07-29T05:34:11;19.60;99.90
24207;DHT22;12351;52.284;9.160;2022-07-29T05:36:42;19.40;99.90
24207;DHT22;12351;52.284;9.160;2022-07-29T05:39:13;19.50;99.90
24207;DHT22;12351;52.284;9.160;2022-07-29T05:41:49;19.50;99.90
24207;DHT22;12351;52.284;9.160;2022-07-29T05:44:21;19.60;99.90
24207;DHT22;12351;52.284;9.160;2022-07-29T05:46:56;19.80;99.90
24207;DHT22;12351;52.284;9.160;2022-07-29T05:49:30;19.90;99.90
24207;DHT22;12351;52.284;9.160;2022-07-29T05:52:01;19.90;99.90
24207;DHT22;12351;52.284;9.160;2022-07-29T05:54:32;19.90;99.90
24207;DHT22;12351;52.284;9.160;2022-07-29T05:57:09;19.60;99.90
24207;DHT22;12351;52.284;9.160;2022-07-29T05:59:45;19.70;99.90
24207;DHT22;12351;52.284;9.160;2022-07-29T06:02:17;19.80;99.90
24207;DHT22;12351;52.284;9.160;2022-07-29T06:04:54;19.50;99.90
24207;DHT22;12351;52.284;9.160;2022-07-29T06:07:29;19.90;99.90
24207;DHT22;12351;52.284;9.160;2022-07-29T06:10:03;19.70;99.90
24207;DHT22;12351;52.284;9.160;2022-07-29T06:12:35;19.90;99.90
24207;DHT22;12351;52.284;9.160;2022-07-29T06:15:11;19.40;99.90
24207;DHT22;12351;52.284;9.160;2022-07-29T06:17:43;19.00;99.90
24207;DHT22;12351;52.284;9.160;2022-07-29T06:20:14;19.00;99.90
24207;DHT22;12351;52.284;9.160;2022-07-29T06:22:48;19.10;99.90
24207;DHT22;12351;52.284;9.160;2022-07-29T06:25:22;19.00;99.90
24207;DHT22;12351;52.284;9.160;2022-07-29T06:27:57;19.60;99.90
24207;DHT22;12351;52.284;9.160;2022-07-29T06:30:29;19.10;99.90
24207;DHT22;12351;52.284;9.160;2022-07-29T06:33:04;19.70;99.90
24207;DHT22;12351;52.284;9.160;2022-07-29T06:35:41;19.50;99.90
24207;DHT22;12351;52.284;9.160;2022-07-29T06:38:16;19.60;99.90
24207;DHT22;12351;52.284;9.160;2022-07-29T06:40:49;19.90;99.90
24207;DHT22;12351;52.284;9.160;2022-07-29T06:43:24;19.30;99.90
24207;DHT22;12351;52.284;9.160;2022-07-29T06:46:02;19.20;99.90
24207;DHT22;12351;52.284;9.160;2022-07-29T06:48:39;19.60;99.90
24207;DHT22;12351;52.284;9.160;2022-07-29T06:51:13;19.40;99.90
24207;DHT22;12351;52.284;9.160;2022-07-29T06:53:47;19.80;99.90
24207;DHT22;12351;52.284;9.160;2022-07-29T06:56:23;19.90;99.90
24207;DHT22;12351;52.284;9.160;2022-07-29T06:58:59;19.90;99.90
24207;DHT22;12351;52.284;9.160;2022-07-29T07:01:33;20.20;99.90
24207;DHT22;12351;52.284;9.160;2022-07-29T07:04:08;20.50;99.90
24207;DHT22;12351;52.284;9.160;2022-07-29T07:06:44;20.60;99.90
24207;DHT22;12351;52.284;9.160;2022-07-29T07:09:20;20.50;99.90
24207;DHT22;12351;52.284;9.160;2022-07-29T07:11:53;20.70;99.90
24207;DHT22;12351;52.284;9.160;2022-07-29T07:14:32;20.60;99.90
24207;DHT22;12351;52.284;9.160;2022-07-29T07:17:06;20.70;99.90
24207;DHT22;12351;52.284;9.160;2022-07-29T07:19:38;20.70;99.90
24207;DHT22;12351;52.284;9.160;2022-07-29T07:22:12;20.30;99.90
24207;DHT22;12351;52.284;9.160;2022-07-29T07:24:50;20.60;99.90
24207;DHT22;12351;52.284;9.160;2022-07-29T07:27:25;20.80;99.90
24207;DHT22;12351;52.284;9.160;2022-07-29T07:30:03;20.90;99.90
24207;DHT22;12351;52.284;9.160;2022-07-29T07:32:36;21.10;99.90
24207;DHT22;12351;52.284;9.160;2022-07-29T07:35:09;21.00;99.90
24207;DHT22;12351;52.284;9.160;2022-07-29T07:37:44;20.60;99.90
24207;DHT22;12351;52.284;9.160;2022-07-29T07:40:19;20.80;99.90
24207;DHT22;12351;52.284;9.160;2022-07-29T07:42:54;21.00;99.90
24207;DHT22;12351;52.284;9.160;2022-07-29T07:45:24;20.80;99.90
24207;DHT22;12351;52.284;9.160;2022-07-29T07:47:58;21.00;99.90
24207;DHT22;12351;52.284;9.160;2022-07-29T07:50:30;21.10;99.90
24207;DHT22;12351;52.284;9.160;2022-07-29T07:53:02;21.10;99.90
24207;DHT22;12351;52.284;9.160;2022-07-29T07:55:39;20.90;99.90
24207;DHT22;12351;52.284;9.160;2022-07-29T07:58:13;21.00;99.90
24207;DHT22;12351;52.284;9.160;2022-07-29T08:00:47;20.30;99.90
24207;DHT22;12351;52.284;9.160;2022-07-29T08:03:19;20.50;99.90
24207;DHT22;12351;52.284;9.160;2022-07-29T08:05:57;21.10;99.90
24207;DHT22;12351;52.284;9.160;2022-07-29T08:08:33;21.40;99.90
24207;DHT22;12351;52.284;9.160;2022-07-29T08:11:06;21.30;99.90
24207;DHT22;12351;52.284;9.160;2022-07-29T08:13:38;21.10;99.90
24207;DHT22;12351;52.284;9.160;2022-07-29T08:16:11;20.60;99.90
24207;DHT22;12351;52.284;9.160;2022-07-29T08:18:47;20.90;99.90
24207;DHT22;12351;52.284;9.160;2022-07-29T08:21:22;20.70;99.90
24207;DHT22;12351;52.284;9.160;2022-07-29T08:23:57;20.80;99.90
24207;DHT22;12351;52.284;9.160;2022-07-29T08:26:33;20.80;99.90
24207;DHT22;12351;52.284;9.160;2022-07-29T08:29:05;20.60;99.90
24207;DHT22;12351;52.284;9.160;2022-07-29T08:31:41;20.70;99.90
24207;DHT22;12351;52.284;9.160;2022-07-29T08:34:18;20.80;99.90
24207;DHT22;12351;52.284;9.160;2022-07-29T08:36:52;20.70;99.90
24207;DHT22;12351;52.284;9.160;2022-07-29T08:39:25;20.80;99.90
24207;DHT22;12351;52.284;9.160;2022-07-29T08:41:57;21.40;99.90
24207;DHT22;12351;52.284;9.160;2022-07-29T08:44:33;20.90;99.90
24207;DHT22;12351;52.284;9.160;2022-07-29T08:47:06;20.40;99.90
24207;DHT22;12351;52.284;9.160;2022-07-29T08:49:37;20.70;99.90
24207;DHT22;12351;52.284;9.160;2022-07-29T08:52:13;21.40;99.90
24207;DHT22;12351;52.284;9.160;2022-07-29T08:54:45;21.30;99.90
24207;DHT22;12351;52.284;9.160;2022-07-29T08:57:21;21.20;99.90
24207;DHT22;12351;52.284;9.160;2022-07-29T08:59:57;20.90;99.90
24207;DHT22;12351;52.284;9.160;2022-07-29T09:02:33;21.10;99.90
24207;DHT22;12351;52.284;9.160;2022-07-29T09:05:03;20.70;99.90
24207;DHT22;12351;52.284;9.160;2022-07-29T09:07:38;20.60;99.90
24207;DHT22;12351;52.284;9.160;2022-07-29T09:10:11;21.00;99.90
24207;DHT22;12351;52.284;9.160;2022-07-29T09:12:46;20.80;99.90
24207;DHT22;12351;52.284;9.160;2022-07-29T09:15:19;21.20;99.90
24207;DHT22;12351;52.284;9.160;2022-07-29T09:17:54;21.00;99.90
24207;DHT22;12351;52.284;9.160;2022-07-29T09:20:30;20.90;99.90
24207;DHT22;12351;52.284;9.160;2022-07-29T09:23:07;20.90;99.90
24207;DHT22;12351;52.284;9.160;2022-07-29T09:25:38;21.40;99.90
24207;DHT22;12351;52.284;9.160;2022-07-29T09:28:11;21.40;99.90
24207;DHT22;12351;52.284;9.160;2022-07-29T09:33:22;21.30;99.90
24207;DHT22;12351;52.284;9.160;2022-07-29T09:38:25;21.90;99.90
24207;DHT22;12351;52.284;9.160;2022-07-29T09:41:01;22.10;99.90
24207;DHT22;12351;52.284;9.160;2022-07-29T09:43:35;21.70;99.90
24207;DHT22;12351;52.284;9.160;2022-07-29T09:48:46;22.10;99.90
24207;DHT22;12351;52.284;9.160;2022-07-29T09:51:18;21.90;99.90
24207;DHT22;12351;52.284;9.160;2022-07-29T09:53:54;22.30;99.90
24207;DHT22;12351;52.284;9.160;2022-07-29T09:59:04;22.80;99.90
24207;DHT22;12351;52.284;9.160;2022-07-29T10:01:32;22.80;99.90
24207;DHT22;12351;52.284;9.160;2022-07-29T10:04:04;23.00;99.90
24207;DHT22;12351;52.284;9.160;2022-07-29T10:09:13;23.50;99.90
24207;DHT22;12351;52.284;9.160;2022-07-29T10:11:45;23.40;99.90
24207;DHT22;12351;52.284;9.160;2022-07-29T10:14:18;23.60;99.90
24207;DHT22;12351;52.284;9.160;2022-07-29T10:16:50;23.40;99.90
24207;DHT22;12351;52.284;9.160;2022-07-29T10:19:22;23.60;99.90
24207;DHT22;12351;52.284;9.160;2022-07-29T10:21:57;23.80;99.90
24207;DHT22;12351;52.284;9.160;2022-07-29T10:24:33;23.60;99.90
24207;DHT22;12351;52.284;9.160;2022-07-29T10:27:03;23.30;99.90
24207;DHT22;12351;52.284;9.160;2022-07-29T10:29:35;23.20;99.90
24207;DHT22;12351;52.284;9.160;2022-07-29T10:34:49;23.20;99.90
24207;DHT22;12351;52.284;9.160;2022-07-29T10:42:39;22.90;99.90
24207;DHT22;12351;52.284;9.160;2022-07-29T10:45:10;23.00;99.90
24207;DHT22;12351;52.284;9.160;2022-07-29T10:47:45;23.30;99.90
24207;DHT22;12351;52.284;9.160;2022-07-29T10:50:15;22.90;99.90
24207;DHT22;12351;52.284;9.160;2022-07-29T11:00:31;23.50;99.90
24207;DHT22;12351;52.284;9.160;2022-07-29T11:03:03;23.00;99.90
24207;DHT22;12351;52.284;9.160;2022-07-29T11:10:45;23.10;99.90
24207;DHT22;12351;52.284;9.160;2022-07-29T11:15:58;23.80;99.90
24207;DHT22;12351;52.284;9.160;2022-07-29T11:18:31;23.60;99.90
24207;DHT22;12351;52.284;9.160;2022-07-29T11:21:01;23.70;99.90
24207;DHT22;12351;52.284;9.160;2022-07-29T11:23:34;23.40;99.90
24207;DHT22;12351;52.284;9.160;2022-07-29T11:31:51;23.40;99.90
24207;DHT22;12351;52.284;9.160;2022-07-29T11:33:54;23.30;99.90
24207;DHT22;12351;52.284;9.160;2022-07-29T11:36:28;23.50;99.90
24207;DHT22;12351;52.284;9.160;2022-07-29T11:39:25;23.30;99.90
24207;DHT22;12351;52.284;9.160;2022-07-29T11:41:38;23.10;99.90
24207;DHT22;12351;52.284;9.160;2022-07-29T11:44:13;22.80;99.90
24207;DHT22;12351;52.284;9.160;2022-07-29T11:49:24;23.20;99.90
24207;DHT22;12351;52.284;9.160;2022-07-29T11:51:57;23.60;99.90
24207;DHT22;12351;52.284;9.160;2022-07-29T11:54:31;22.90;99.90
24207;DHT22;12351;52.284;9.160;2022-07-29T11:57:07;23.00;99.90
24207;DHT22;12351;52.284;9.160;2022-07-29T11:59:38;23.00;99.90
24207;DHT22;12351;52.284;9.160;2022-07-29T12:02:14;23.10;99.90
24207;DHT22;12351;52.284;9.160;2022-07-29T12:07:19;23.80;99.90
24207;DHT22;12351;52.284;9.160;2022-07-29T12:09:53;24.20;99.90
24207;DHT22;12351;52.284;9.160;2022-07-29T12:12:28;24.50;99.90
24207;DHT22;12351;52.284;9.160;2022-07-29T12:17:35;24.00;99.90
24207;DHT22;12351;52.284;9.160;2022-07-29T12:20:12;24.50;99.90
24207;DHT22;12351;52.284;9.160;2022-07-29T12:22:44;24.90;99.90
24207;DHT22;12351;52.284;9.160;2022-07-29T12:25:17;24.80;99.90
24207;DHT22;12351;52.284;9.160;2022-07-29T12:35:44;25.40;99.90
24207;DHT22;12351;52.284;9.160;2022-07-29T12:38:17;24.50;99.90
24207;DHT22;12351;52.284;9.160;2022-07-29T12:40:50;24.10;99.90
24207;DHT22;12351;52.284;9.160;2022-07-29T12:43:26;24.30;99.90
24207;DHT22;12351;52.284;9.160;2022-07-29T12:46:00;24.70;99.90
24207;DHT22;12351;52.284;9.160;2022-07-29T12:51:05;25.00;99.90
24207;DHT22;12351;52.284;9.160;2022-07-29T12:53:39;25.40;99.90
24207;DHT22;12351;52.284;9.160;2022-07-29T12:58:43;24.80;99.90
24207;DHT22;12351;52.284;9.160;2022-07-29T13:01:17;24.30;99.90
24207;DHT22;12351;52.284;9.160;2022-07-29T13:03:53;24.60;99.90
24207;DHT22;12351;52.284;9.160;2022-07-29T13:06:27;24.50;99.90
24207;DHT22;12351;52.284;9.160;2022-07-29T13:09:03;24.80;99.90
24207;DHT22;12351;52.284;9.160;2022-07-29T13:11:37;25.20;99.90
24207;DHT22;12351;52.284;9.160;2022-07-29T13:14:09;25.00;99.90
24207;DHT22;12351;52.284;9.160;2022-07-29T13:19:31;25.20;99.90
24207;DHT22;12351;52.284;9.160;2022-07-29T13:21:55;25.50;99.90
24207;DHT22;12351;52.284;9.160;2022-07-29T13:24:26;25.80;99.90
24207;DHT22;12351;52.284;9.160;2022-07-29T13:26:59;25.50;99.90
24207;DHT22;12351;52.284;9.160;2022-07-29T13:29:32;25.70;99.90
24207;DHT22;12351;52.284;9.160;2022-07-29T13:32:08;25.30;99.90
24207;DHT22;12351;52.284;9.160;2022-07-29T13:34:41;25.70;99.90
24207;DHT22;12351;52.284;9.160;2022-07-29T13:37:18;25.40;99.90
24207;DHT22;12351;52.284;9.160;2022-07-29T13:39:53;25.60;99.90
24207;DHT22;12351;52.284;9.160;2022-07-29T13:42:29;25.60;99.90
24207;DHT22;12351;52.284;9.160;2022-07-29T13:45:01;25.30;99.90
24207;DHT22;12351;52.284;9.160;2022-07-29T13:47:37;25.40;99.90
24207;DHT22;12351;52.284;9.160;2022-07-29T13:50:11;25.10;99.90
24207;DHT22;12351;52.284;9.160;2022-07-29T13:52:47;25.60;99.90
24207;DHT22;12351;52.284;9.160;2022-07-29T13:55:21;25.40;99.90
24207;DHT22;12351;52.284;9.160;2022-07-29T13:57:56;25.50;99.90
24207;DHT22;12351;52.284;9.160;2022-07-29T14:00:29;25.60;99.90
24207;DHT22;12351;52.284;9.160;2022-07-29T14:03:02;25.50;99.90
24207;DHT22;12351;52.284;9.160;2022-07-29T14:05:37;25.30;99.90
24207;DHT22;12351;52.284;9.160;2022-07-29T14:08:13;25.20;99.90
24207;DHT22;12351;52.284;9.160;2022-07-29T14:10:46;25.50;99.90
24207;DHT22;12351;52.284;9.160;2022-07-29T14:13:21;25.40;99.90
24207;DHT22;12351;52.284;9.160;2022-07-29T14:15:54;25.50;99.90
24207;DHT22;12351;52.284;9.160;2022-07-29T14:18:27;25.90;99.90
24207;DHT22;12351;52.284;9.160;2022-07-29T14:21:03;25.80;99.90
24207;DHT22;12351;52.284;9.160;2022-07-29T14:23:37;26.30;99.90
24207;DHT22;12351;52.284;9.160;2022-07-29T14:26:09;25.70;99.90
24207;DHT22;12351;52.284;9.160;2022-07-29T14:28:39;25.80;99.90
24207;DHT22;12351;52.284;9.160;2022-07-29T14:31:14;26.10;99.90
24207;DHT22;12351;52.284;9.160;2022-07-29T14:33:48;25.90;99.90
24207;DHT22;12351;52.284;9.160;2022-07-29T14:36:21;26.00;99.90
24207;DHT22;12351;52.284;9.160;2022-07-29T14:38:54;26.10;98.90
24207;DHT22;12351;52.284;9.160;2022-07-29T14:41:28;26.10;99.80
24207;DHT22;12351;52.284;9.160;2022-07-29T14:43:59;26.20;98.10
24207;DHT22;12351;52.284;9.160;2022-07-29T14:46:34;26.30;99.20
24207;DHT22;12351;52.284;9.160;2022-07-29T14:49:05;26.10;98.90
24207;DHT22;12351;52.284;9.160;2022-07-29T14:51:41;26.00;98.10
24207;DHT22;12351;52.284;9.160;2022-07-29T14:54:16;26.30;99.90
24207;DHT22;12351;52.284;9.160;2022-07-29T14:56:47;26.10;98.10
24207;DHT22;12351;52.284;9.160;2022-07-29T14:59:19;26.30;98.50
24207;DHT22;12351;52.284;9.160;2022-07-29T15:01:56;26.20;99.50
24207;DHT22;12351;52.284;9.160;2022-07-29T15:04:27;26.10;99.70
24207;DHT22;12351;52.284;9.160;2022-07-29T15:07:02;26.10;99.40
24207;DHT22;12351;52.284;9.160;2022-07-29T15:09:33;26.40;99.90
24207;DHT22;12351;52.284;9.160;2022-07-29T15:12:07;26.60;99.60
24207;DHT22;12351;52.284;9.160;2022-07-29T15:14:39;26.50;99.80
24207;DHT22;12351;52.284;9.160;2022-07-29T15:17:12;26.10;98.30
24207;DHT22;12351;52.284;9.160;2022-07-29T15:19:44;25.70;98.90
24207;DHT22;12351;52.284;9.160;2022-07-29T15:22:16;25.90;99.90
24207;DHT22;12351;52.284;9.160;2022-07-29T15:24:52;25.80;99.30
24207;DHT22;12351;52.284;9.160;2022-07-29T15:27:26;25.90;99.80
24207;DHT22;12351;52.284;9.160;2022-07-29T15:29:58;26.10;98.50
24207;DHT22;12351;52.284;9.160;2022-07-29T15:32:33;26.20;98.80
24207;DHT22;12351;52.284;9.160;2022-07-29T15:35:05;26.40;99.90
24207;DHT22;12351;52.284;9.160;2022-07-29T15:37:41;26.50;99.90
24207;DHT22;12351;52.284;9.160;2022-07-29T15:40:12;26.40;99.90
24207;DHT22;12351;52.284;9.160;2022-07-29T15:42:49;26.00;99.90
24207;DHT22;12351;52.284;9.160;2022-07-29T15:45:22;25.70;99.90
24207;DHT22;12351;52.284;9.160;2022-07-29T15:47:58;25.20;99.90
24207;DHT22;12351;52.284;9.160;2022-07-29T15:50:31;25.40;99.90
24207;DHT22;12351;52.284;9.160;2022-07-29T15:53:04;25.70;99.90
24207;DHT22;12351;52.284;9.160;2022-07-29T15:55:36;25.70;99.90
24207;DHT22;12351;52.284;9.160;2022-07-29T15:58:09;25.90;99.90
24207;DHT22;12351;52.284;9.160;2022-07-29T16:00:43;25.90;99.90
24207;DHT22;12351;52.284;9.160;2022-07-29T16:03:19;26.00;99.90
24207;DHT22;12351;52.284;9.160;2022-07-29T16:05:51;26.00;99.90
24207;DHT22;12351;52.284;9.160;2022-07-29T16:08:26;25.60;99.90
24207;DHT22;12351;52.284;9.160;2022-07-29T16:10:59;25.70;99.90
24207;DHT22;12351;52.284;9.160;2022-07-29T16:13:29;25.80;99.90
24207;DHT22;12351;52.284;9.160;2022-07-29T16:15:59;26.00;99.90
24207;DHT22;12351;52.284;9.160;2022-07-29T16:18:34;25.70;99.90
24207;DHT22;12351;52.284;9.160;2022-07-29T16:21:09;25.80;99.90
24207;DHT22;12351;52.284;9.160;2022-07-29T16:23:44;25.70;99.90
24207;DHT22;12351;52.284;9.160;2022-07-29T16:26:19;25.70;99.90
24207;DHT22;12351;52.284;9.160;2022-07-29T16:28:50;25.40;99.90
24207;DHT22;12351;52.284;9.160;2022-07-29T16:31:22;25.20;99.90
24207;DHT22;12351;52.284;9.160;2022-07-29T16:33:57;25.40;99.90
24207;DHT22;12351;52.284;9.160;2022-07-29T16:36:33;25.50;99.90
24207;DHT22;12351;52.284;9.160;2022-07-29T16:39:08;25.50;99.90
24207;DHT22;12351;52.284;9.160;2022-07-29T16:41:41;25.50;99.90
24207;DHT22;12351;52.284;9.160;2022-07-29T16:44:17;25.50;99.90
24207;DHT22;12351;52.284;9.160;2022-07-29T16:46:50;25.30;99.90
24207;DHT22;12351;52.284;9.160;2022-07-29T16:49:23;25.40;99.90
24207;DHT22;12351;52.284;9.160;2022-07-29T16:51:58;25.20;99.90
24207;DHT22;12351;52.284;9.160;2022-07-29T16:54:32;25.30;99.90
24207;DHT22;12351;52.284;9.160;2022-07-29T16:57:02;25.30;99.90
24207;DHT22;12351;52.284;9.160;2022-07-29T16:59:38;25.30;99.90
24207;DHT22;12351;52.284;9.160;2022-07-29T17:02:11;25.10;99.90
24207;DHT22;12351;52.284;9.160;2022-07-29T17:04:46;25.00;99.90
24207;DHT22;12351;52.284;9.160;2022-07-29T17:07:21;25.00;99.90
24207;DHT22;12351;52.284;9.160;2022-07-29T17:09:54;25.00;99.90
24207;DHT22;12351;52.284;9.160;2022-07-29T17:12:26;25.20;99.90
24207;DHT22;12351;52.284;9.160;2022-07-29T17:14:58;25.20;99.90
24207;DHT22;12351;52.284;9.160;2022-07-29T17:17:31;24.80;99.90
24207;DHT22;12351;52.284;9.160;2022-07-29T17:20:06;25.00;99.90
24207;DHT22;12351;52.284;9.160;2022-07-29T17:22:42;25.00;99.90
24207;DHT22;12351;52.284;9.160;2022-07-29T17:25:16;25.10;99.90
24207;DHT22;12351;52.284;9.160;2022-07-29T17:27:50;25.10;99.90
24207;DHT22;12351;52.284;9.160;2022-07-29T17:30:25;25.00;99.90
24207;DHT22;12351;52.284;9.160;2022-07-29T17:32:59;24.90;99.90
24207;DHT22;12351;52.284;9.160;2022-07-29T17:35:34;24.70;99.90